createdAt,value
2018-12-13T00:01:13.539Z,2.70
2018-12-13T00:03:41.939Z,2.60
2018-12-13T00:06:10.459Z,2.60
2018-12-13T00:08:38.929Z,2.60
2018-12-13T00:11:07.410Z,2.50
2018-12-13T00:13:35.807Z,2.40
2018-12-13T00:16:04.285Z,2.40
2018-12-13T00:18:32.726Z,2.40
2018-12-13T00:21:01.135Z,2.40
2018-12-13T00:23:29.551Z,2.50
2018-12-13T00:25:58.009Z,2.50
2018-12-13T00:28:26.415Z,2.50
2018-12-13T00:30:54.797Z,2.60
2018-12-13T00:33:23.214Z,2.60
2018-12-13T00:35:51.603Z,2.70
2018-12-13T00:38:20.094Z,2.70
2018-12-13T00:40:48.480Z,2.70
2018-12-13T00:43:16.963Z,2.70
2018-12-13T00:45:45.378Z,2.80
2018-12-13T00:48:13.805Z,2.80
2018-12-13T00:50:42.291Z,2.70
2018-12-13T00:53:10.693Z,2.70
2018-12-13T00:55:39.151Z,2.70
2018-12-13T00:58:07.640Z,2.70
2018-12-13T01:00:36.108Z,2.60
2018-12-13T01:03:04.560Z,2.50
2018-12-13T01:05:33.076Z,2.40
2018-12-13T01:08:02.147Z,2.30
2018-12-13T01:10:30.543Z,2.20
2018-12-13T01:12:59.035Z,2.20
2018-12-13T01:15:29.150Z,2.10
2018-12-13T01:17:57.538Z,1.90
2018-12-13T01:20:25.950Z,1.80
2018-12-13T01:22:54.358Z,1.80
2018-12-13T01:25:22.871Z,1.70
2018-12-13T01:27:51.356Z,1.60
2018-12-13T01:30:19.831Z,1.60
2018-12-13T01:32:48.315Z,1.60
2018-12-13T01:35:16.715Z,1.70
2018-12-13T01:37:45.109Z,1.90
2018-12-13T01:40:13.563Z,2.00
2018-12-13T01:42:41.949Z,2.10
2018-12-13T01:45:10.451Z,2.20
2018-12-13T01:47:38.847Z,2.20
2018-12-13T01:50:07.477Z,2.30
2018-12-13T01:52:35.881Z,2.30
2018-12-13T01:55:04.428Z,2.30
2018-12-13T01:57:32.819Z,2.30
2018-12-13T02:00:01.246Z,2.40
2018-12-13T02:02:29.983Z,2.40
2018-12-13T02:04:58.479Z,2.50
2018-12-13T02:07:26.881Z,2.50
2018-12-13T02:09:55.261Z,2.60
2018-12-13T02:12:23.726Z,2.60
2018-12-13T02:14:52.120Z,2.60
2018-12-13T02:17:20.580Z,2.70
2018-12-13T02:19:49.074Z,2.70
2018-12-13T02:22:17.462Z,2.70
2018-12-13T02:24:45.852Z,2.70
2018-12-13T02:27:14.282Z,2.60
2018-12-13T02:29:42.683Z,2.60
2018-12-13T02:32:11.157Z,2.50
2018-12-13T02:34:40.036Z,2.50
2018-12-13T02:37:08.654Z,2.60
2018-12-13T02:39:37.066Z,2.60
2018-12-13T02:42:05.876Z,2.70
2018-12-13T02:44:34.374Z,2.70
2018-12-13T02:47:03.018Z,2.70
2018-12-13T02:49:31.830Z,2.70
2018-12-13T02:52:00.750Z,2.60
2018-12-13T02:54:30.032Z,2.60
2018-12-13T02:56:58.424Z,2.60
2018-12-13T02:59:26.890Z,2.60
2018-12-13T03:01:55.287Z,2.50
2018-12-13T03:04:24.568Z,2.50
2018-12-13T03:06:53.065Z,2.40
2018-12-13T03:09:21.738Z,2.50
2018-12-13T03:11:50.221Z,2.50
2018-12-13T03:14:18.618Z,2.50
2018-12-13T03:16:47.025Z,2.60
2018-12-13T03:19:15.414Z,2.60
2018-12-13T03:21:43.835Z,2.70
2018-12-13T03:24:12.332Z,2.70
2018-12-13T03:26:42.005Z,2.60
2018-12-13T03:29:10.417Z,2.60
2018-12-13T03:31:38.821Z,2.60
2018-12-13T03:34:07.267Z,2.50
2018-12-13T03:36:35.857Z,2.50
2018-12-13T03:39:06.747Z,2.60
2018-12-13T03:41:35.554Z,2.60
2018-12-13T03:44:04.367Z,2.60
2018-12-13T03:46:32.759Z,2.60
2018-12-13T03:49:01.176Z,2.60
2018-12-13T03:51:29.611Z,2.60
2018-12-13T03:53:58.113Z,2.50
2018-12-13T03:56:26.505Z,2.60
2018-12-13T03:58:55.209Z,2.70
2018-12-13T04:01:23.624Z,2.70
2018-12-13T04:03:52.105Z,2.70
2018-12-13T04:06:20.591Z,2.80
2018-12-13T04:08:49.080Z,2.70
2018-12-13T04:11:17.561Z,2.70
2018-12-13T04:13:46.994Z,2.60
2018-12-13T04:16:15.707Z,2.60
2018-12-13T04:18:44.111Z,2.50
2018-12-13T04:21:12.508Z,2.50
2018-12-13T04:23:41.543Z,2.40
2018-12-13T04:26:09.938Z,2.40
2018-12-13T04:28:38.359Z,2.40
2018-12-13T04:31:06.755Z,2.40
2018-12-13T04:33:35.408Z,2.50
2018-12-13T04:36:03.798Z,2.40
2018-12-13T04:38:32.207Z,2.30
2018-12-13T04:41:00.593Z,2.30
2018-12-13T04:43:29.076Z,2.30
2018-12-13T04:45:57.513Z,2.30
2018-12-13T04:48:25.923Z,2.30
2018-12-13T04:50:54.309Z,2.30
2018-12-13T04:53:22.766Z,2.30
2018-12-13T04:55:51.158Z,2.30
2018-12-13T04:58:19.575Z,2.40
2018-12-13T05:00:47.954Z,2.50
2018-12-13T05:03:16.355Z,2.50
2018-12-13T05:05:44.856Z,2.50
2018-12-13T05:08:13.339Z,2.60
2018-12-13T05:10:50.769Z,2.60
2018-12-13T05:13:19.519Z,2.60
2018-12-13T05:15:47.914Z,2.60
2018-12-13T05:18:16.319Z,2.60
2018-12-13T05:20:44.880Z,2.60
2018-12-13T05:23:13.338Z,2.50
2018-12-13T05:25:41.818Z,2.40
2018-12-13T05:28:10.222Z,2.40
2018-12-13T05:30:38.684Z,2.40
2018-12-13T05:33:07.704Z,2.50
2018-12-13T05:35:36.114Z,2.50
2018-12-13T05:38:04.504Z,2.50
2018-12-13T05:40:32.991Z,2.50
2018-12-13T05:43:01.387Z,2.50
2018-12-13T05:45:29.795Z,2.60
2018-12-13T05:47:58.181Z,2.60
2018-12-13T05:50:26.631Z,2.50
2018-12-13T05:52:55.016Z,2.50
2018-12-13T05:55:23.487Z,2.50
2018-12-13T05:57:51.883Z,2.50
2018-12-13T06:00:20.347Z,2.50
2018-12-13T06:02:48.892Z,2.60
2018-12-13T06:05:17.441Z,2.70
2018-12-13T06:07:46.625Z,2.70
2018-12-13T06:10:15.045Z,2.70
2018-12-13T06:12:43.762Z,2.60
2018-12-13T06:15:12.242Z,2.60
2018-12-13T06:17:40.996Z,2.60
2018-12-13T06:20:09.698Z,2.60
2018-12-13T06:22:38.109Z,2.60
2018-12-13T06:25:07.347Z,2.60
2018-12-13T06:27:35.745Z,2.60
2018-12-13T06:30:07.662Z,2.70
2018-12-13T06:32:36.149Z,2.70
2018-12-13T06:35:04.992Z,2.90
2018-12-13T06:37:33.438Z,2.90
2018-12-13T06:40:01.881Z,2.90
2018-12-13T06:42:30.805Z,2.90
2018-12-13T06:44:59.198Z,2.90
2018-12-13T06:47:27.648Z,3.00
2018-12-13T06:49:56.728Z,3.00
2018-12-13T06:52:25.224Z,3.00
2018-12-13T06:54:53.610Z,3.00
2018-12-13T06:57:22.020Z,3.00
2018-12-13T06:59:50.422Z,3.00
2018-12-13T07:02:18.831Z,3.00
2018-12-13T07:04:47.251Z,3.00
2018-12-13T07:07:15.701Z,3.00
2018-12-13T07:09:44.193Z,3.10
2018-12-13T07:12:12.649Z,3.10
2018-12-13T07:14:41.053Z,3.20
2018-12-13T07:17:09.467Z,3.20
2018-12-13T07:19:37.900Z,3.20
2018-12-13T07:22:06.287Z,3.10
2018-12-13T07:24:34.687Z,3.10
2018-12-13T07:27:03.107Z,3.10
2018-12-13T07:29:31.611Z,3.00
2018-12-13T07:32:00.095Z,3.00
2018-12-13T07:34:28.493Z,3.10
2018-12-13T07:36:56.955Z,3.10
2018-12-13T07:39:25.409Z,3.00
2018-12-13T07:41:53.840Z,3.00
2018-12-13T07:44:22.285Z,3.00
2018-12-13T07:46:50.771Z,3.10
2018-12-13T07:49:19.177Z,3.10
2018-12-13T07:51:47.651Z,3.10
2018-12-13T07:54:16.115Z,3.10
2018-12-13T07:56:44.512Z,3.20
2018-12-13T07:59:12.958Z,3.20
2018-12-13T08:01:41.692Z,3.10
2018-12-13T08:04:10.140Z,3.10
2018-12-13T08:06:38.652Z,3.10
2018-12-13T08:09:07.612Z,3.10
2018-12-13T08:11:36.018Z,3.10
2018-12-13T08:14:04.911Z,3.10
2018-12-13T08:16:33.289Z,3.20
2018-12-13T08:19:01.697Z,3.20
2018-12-13T08:21:30.110Z,3.20
2018-12-13T08:23:58.509Z,3.30
2018-12-13T08:26:26.903Z,3.30
2018-12-13T08:28:56.060Z,3.30
2018-12-13T08:31:24.477Z,3.30
2018-12-13T08:33:53.293Z,3.40
2018-12-13T08:36:21.751Z,3.40
2018-12-13T08:38:50.146Z,3.30
2018-12-13T08:41:18.585Z,3.40
2018-12-13T08:43:46.990Z,3.40
2018-12-13T08:46:15.433Z,3.40
2018-12-13T08:48:43.858Z,3.50
2018-12-13T08:51:12.258Z,3.50
2018-12-13T08:53:40.662Z,3.50
2018-12-13T08:56:09.054Z,3.40
2018-12-13T08:58:37.576Z,3.40
2018-12-13T09:01:05.996Z,3.40
2018-12-13T09:03:34.395Z,3.50
2018-12-13T09:06:02.874Z,3.60
2018-12-13T09:08:33.796Z,3.60
2018-12-13T09:11:01.797Z,3.60
2018-12-13T09:13:30.179Z,3.60
2018-12-13T09:15:59.389Z,3.50
2018-12-13T09:18:27.787Z,3.50
2018-12-13T09:20:56.183Z,3.50
2018-12-13T09:23:24.629Z,3.50
2018-12-13T09:25:53.049Z,3.50
2018-12-13T09:28:21.487Z,3.50
2018-12-13T09:30:49.896Z,3.60
2018-12-13T09:33:18.281Z,3.60
2018-12-13T09:35:46.801Z,3.50
2018-12-13T09:38:15.309Z,3.60
2018-12-13T09:40:43.764Z,3.70
2018-12-13T09:43:12.222Z,3.80
2018-12-13T09:45:40.625Z,3.80
2018-12-13T09:48:09.003Z,3.80
2018-12-13T09:50:37.479Z,3.90
2018-12-13T09:53:05.970Z,4.00
2018-12-13T09:55:34.440Z,4.00
2018-12-13T09:58:02.925Z,3.90
2018-12-13T10:00:31.413Z,3.90
2018-12-13T10:03:00.097Z,3.80
2018-12-13T10:05:28.584Z,3.80
2018-12-13T10:07:57.052Z,3.80
2018-12-13T10:10:25.578Z,3.70
2018-12-13T10:12:54.018Z,3.70
2018-12-13T10:15:22.496Z,3.70
2018-12-13T10:17:50.968Z,3.70
2018-12-13T10:20:19.361Z,3.80
2018-12-13T10:22:47.777Z,3.90
2018-12-13T10:25:16.220Z,3.90
2018-12-13T10:27:45.561Z,3.90
2018-12-13T10:30:14.132Z,3.90
2018-12-13T10:32:42.701Z,3.90
2018-12-13T10:35:11.579Z,3.90
2018-12-13T10:37:40.453Z,4.00
2018-12-13T10:40:09.078Z,4.00
2018-12-13T10:42:37.470Z,4.10
2018-12-13T10:45:06.693Z,4.20
2018-12-13T10:47:35.104Z,4.10
2018-12-13T10:50:03.992Z,4.00
2018-12-13T10:52:33.412Z,3.90
2018-12-13T10:55:02.076Z,3.90
2018-12-13T10:57:30.476Z,3.90
2018-12-13T10:59:58.862Z,3.90
2018-12-13T11:02:33.438Z,3.90
2018-12-13T11:05:01.949Z,4.00
2018-12-13T11:07:32.289Z,4.10
2018-12-13T11:10:00.749Z,4.30
2018-12-13T11:12:29.139Z,4.40
2018-12-13T11:14:57.551Z,4.40
2018-12-13T11:17:25.930Z,4.40
2018-12-13T11:19:54.338Z,4.40
2018-12-13T11:22:22.758Z,4.50
2018-12-13T11:24:51.193Z,4.60
2018-12-13T11:27:30.988Z,4.70
2018-12-13T11:30:10.182Z,4.90
2018-12-13T11:32:41.906Z,5.00
2018-12-13T11:35:10.290Z,4.90
2018-12-13T11:37:38.710Z,4.90
2018-12-13T11:40:07.307Z,4.90
2018-12-13T11:42:35.757Z,4.90
2018-12-13T11:45:04.762Z,4.80
2018-12-13T11:47:33.872Z,4.70
2018-12-13T11:50:02.362Z,4.50
2018-12-13T11:52:30.862Z,4.40
2018-12-13T11:55:02.528Z,4.40
2018-12-13T11:57:31.004Z,4.40
2018-12-13T11:59:59.392Z,4.50
2018-12-13T12:02:27.965Z,4.60
2018-12-13T12:04:56.446Z,4.60
2018-12-13T12:07:24.905Z,4.60
2018-12-13T12:09:53.335Z,4.60
2018-12-13T12:12:21.822Z,4.60
2018-12-13T12:14:50.215Z,4.60
2018-12-13T12:17:18.663Z,4.50
2018-12-13T12:19:47.106Z,4.60
2018-12-13T12:22:15.565Z,4.50
2018-12-13T12:24:43.948Z,4.40
2018-12-13T12:27:12.423Z,4.50
2018-12-13T12:29:40.845Z,4.50
2018-12-13T12:32:09.224Z,4.50
2018-12-13T12:34:37.627Z,4.60
2018-12-13T12:37:06.050Z,4.60
2018-12-13T12:39:34.737Z,4.70
2018-12-13T12:42:03.228Z,4.70
2018-12-13T12:44:34.862Z,4.60
2018-12-13T12:47:03.304Z,4.50
2018-12-13T12:49:31.686Z,4.50
2018-12-13T12:52:00.072Z,4.40
2018-12-13T12:54:28.492Z,4.40
2018-12-13T12:56:56.890Z,4.30
2018-12-13T12:59:25.385Z,4.30
2018-12-13T13:01:53.955Z,4.30
2018-12-13T13:04:22.716Z,4.20
2018-12-13T13:06:51.141Z,4.20
2018-12-13T13:09:24.801Z,4.20
2018-12-13T13:11:49.939Z,4.20
2018-12-13T13:14:18.367Z,4.20
2018-12-13T13:16:46.768Z,4.20
2018-12-13T13:19:15.136Z,4.20
2018-12-13T13:21:43.643Z,4.20
2018-12-13T13:24:12.051Z,4.20
2018-12-13T13:26:40.467Z,4.30
2018-12-13T13:29:08.859Z,4.40
2018-12-13T13:31:37.249Z,4.30
2018-12-13T13:34:05.673Z,4.20
2018-12-13T13:36:34.073Z,4.20
2018-12-13T13:39:02.479Z,4.20
2018-12-13T13:41:30.993Z,4.20
2018-12-13T13:43:59.392Z,4.20
2018-12-13T13:46:27.787Z,4.20
2018-12-13T13:48:56.232Z,4.20
2018-12-13T13:51:24.627Z,4.10
2018-12-13T13:53:53.056Z,4.00
2018-12-13T13:56:21.545Z,4.00
2018-12-13T13:58:49.969Z,4.00
2018-12-13T14:01:18.396Z,4.00
2018-12-13T14:03:46.904Z,4.00
2018-12-13T14:06:15.322Z,4.10
2018-12-13T14:08:43.777Z,4.10
2018-12-13T14:11:12.181Z,4.10
2018-12-13T14:13:40.688Z,4.20
2018-12-13T14:16:09.224Z,4.10
2018-12-13T14:18:37.636Z,4.10
2018-12-13T14:21:06.082Z,4.00
2018-12-13T14:23:34.561Z,4.00
2018-12-13T14:26:02.949Z,4.00
2018-12-13T14:28:31.524Z,4.00
2018-12-13T14:30:59.967Z,4.10
2018-12-13T14:33:28.362Z,4.10
2018-12-13T14:35:56.832Z,4.10
2018-12-13T14:38:25.294Z,4.10
2018-12-13T14:40:53.709Z,4.10
2018-12-13T14:43:22.178Z,4.10
2018-12-13T14:45:50.656Z,4.00
2018-12-13T14:48:19.088Z,4.00
2018-12-13T14:50:47.575Z,4.00
2018-12-13T14:53:15.983Z,4.00
2018-12-13T14:55:44.516Z,4.00
2018-12-13T14:58:13.099Z,3.90
2018-12-13T15:00:41.643Z,3.90
2018-12-13T15:03:10.094Z,3.90
2018-12-13T15:05:38.709Z,4.00
2018-12-13T15:08:07.147Z,4.00
2018-12-13T15:10:35.581Z,4.00
2018-12-13T15:13:04.019Z,3.90
2018-12-13T15:15:32.435Z,3.90
2018-12-13T15:18:01.045Z,4.00
2018-12-13T15:20:29.527Z,3.90
2018-12-13T15:22:58.033Z,4.00
2018-12-13T15:25:26.693Z,3.90
2018-12-13T15:27:55.098Z,3.90
2018-12-13T15:30:23.496Z,3.90
2018-12-13T15:32:51.938Z,3.90
2018-12-13T15:35:20.376Z,3.90
2018-12-13T15:37:48.785Z,3.90
2018-12-13T15:40:17.179Z,3.90
2018-12-13T15:42:45.649Z,3.90
2018-12-13T15:45:14.305Z,4.00
2018-12-13T15:47:42.701Z,4.00
2018-12-13T15:50:11.155Z,4.00
2018-12-13T15:52:39.646Z,3.90
2018-12-13T15:55:08.110Z,3.90
2018-12-13T15:57:36.619Z,3.80
2018-12-13T16:00:08.125Z,3.80
2018-12-13T16:02:36.636Z,3.80
2018-12-13T16:05:06.051Z,3.90
2018-12-13T16:07:34.448Z,3.90
2018-12-13T16:10:04.022Z,3.90
2018-12-13T16:12:32.870Z,3.80
2018-12-13T16:15:01.326Z,3.80
2018-12-13T16:17:29.707Z,3.90
2018-12-13T16:19:58.210Z,3.90
2018-12-13T16:22:26.847Z,3.80
2018-12-13T16:24:55.328Z,3.70
2018-12-13T16:27:23.978Z,3.70
2018-12-13T16:29:52.646Z,3.70
2018-12-13T16:32:21.031Z,3.70
2018-12-13T16:34:49.434Z,3.70
2018-12-13T16:37:17.867Z,3.70
2018-12-13T16:39:46.289Z,3.80
2018-12-13T16:42:14.671Z,3.80
2018-12-13T16:44:43.100Z,3.90
2018-12-13T16:47:11.491Z,3.80
2018-12-13T16:49:39.893Z,3.80
2018-12-13T16:52:08.443Z,3.80
2018-12-13T16:54:36.841Z,3.80
2018-12-13T16:57:05.267Z,3.70
2018-12-13T16:59:33.668Z,3.70
2018-12-13T17:02:02.131Z,3.70
2018-12-13T17:04:30.613Z,3.70
2018-12-13T17:06:59.006Z,3.70
2018-12-13T17:09:27.485Z,3.70
2018-12-13T17:11:55.898Z,3.70
2018-12-13T17:14:24.292Z,3.60
2018-12-13T17:16:52.692Z,3.60
2018-12-13T17:19:21.182Z,3.60
2018-12-13T17:21:49.600Z,3.60
2018-12-13T17:24:17.996Z,3.60
2018-12-13T17:26:46.462Z,3.60
2018-12-13T17:29:14.848Z,3.60
2018-12-13T17:31:43.304Z,3.60
2018-12-13T17:34:11.706Z,3.60
2018-12-13T17:36:40.162Z,3.60
2018-12-13T17:39:08.554Z,3.70
2018-12-13T17:41:37.013Z,3.70
2018-12-13T17:44:05.470Z,3.70
2018-12-13T17:46:33.874Z,3.70
2018-12-13T17:49:02.282Z,3.70
2018-12-13T17:51:30.950Z,3.70
2018-12-13T17:53:59.590Z,3.70
2018-12-13T17:56:28.046Z,3.60
2018-12-13T17:58:56.440Z,3.60
2018-12-13T18:01:24.858Z,3.50
2018-12-13T18:03:53.256Z,3.50
2018-12-13T18:06:21.704Z,3.50
2018-12-13T18:08:50.105Z,3.50
2018-12-13T18:11:18.558Z,3.50
2018-12-13T18:13:46.984Z,3.50
2018-12-13T18:16:15.426Z,3.50
2018-12-13T18:18:43.907Z,3.50
2018-12-13T18:21:12.306Z,3.50
2018-12-13T18:23:41.463Z,3.50
2018-12-13T18:26:09.854Z,3.50
2018-12-13T18:28:38.354Z,3.50
2018-12-13T18:31:06.830Z,3.50
2018-12-13T18:33:35.233Z,3.50
2018-12-13T18:36:03.686Z,3.50
2018-12-13T18:38:32.168Z,3.40
2018-12-13T18:41:00.558Z,3.40
2018-12-13T18:43:29.130Z,3.40
2018-12-13T18:45:58.312Z,3.50
2018-12-13T18:48:26.692Z,3.50
2018-12-13T18:50:55.200Z,3.60
2018-12-13T18:53:23.601Z,3.50
2018-12-13T18:55:52.084Z,3.50
2018-12-13T18:58:20.564Z,3.50
2018-12-13T19:00:48.967Z,3.50
2018-12-13T19:03:17.377Z,3.50
2018-12-13T19:05:45.775Z,3.50
2018-12-13T19:08:14.231Z,3.50
2018-12-13T19:10:42.631Z,3.40
2018-12-13T19:13:11.112Z,3.40
2018-12-13T19:15:39.528Z,3.40
2018-12-13T19:18:08.171Z,3.30
2018-12-13T19:20:36.650Z,3.40
2018-12-13T19:23:05.145Z,3.30
2018-12-13T19:25:33.719Z,3.20
2018-12-13T19:28:02.197Z,3.10
2018-12-13T19:30:30.716Z,3.00
2018-12-13T19:32:59.163Z,2.90
2018-12-13T19:35:27.739Z,2.80
2018-12-13T19:37:56.138Z,2.80
2018-12-13T19:40:24.547Z,2.70
2018-12-13T19:42:53.001Z,2.70
2018-12-13T19:45:21.421Z,2.80
2018-12-13T19:47:49.829Z,2.80
2018-12-13T19:50:18.253Z,2.80
2018-12-13T19:52:46.663Z,2.80
2018-12-13T19:55:15.472Z,2.80
2018-12-13T19:57:44.079Z,2.90
2018-12-13T20:00:12.583Z,3.00
2018-12-13T20:02:40.969Z,3.10
2018-12-13T20:05:09.427Z,3.00
2018-12-13T20:07:37.818Z,3.10
2018-12-13T20:10:07.903Z,3.00
2018-12-13T20:12:36.407Z,3.00
2018-12-13T20:15:05.132Z,3.00
2018-12-13T20:17:33.677Z,3.00
2018-12-13T20:20:02.062Z,3.00
2018-12-13T20:22:30.475Z,3.00
2018-12-13T20:24:58.863Z,3.00
2018-12-13T20:27:27.397Z,3.00
2018-12-13T20:29:55.803Z,3.00
2018-12-13T20:32:24.458Z,3.00
2018-12-13T20:34:53.231Z,2.90
2018-12-13T20:37:21.878Z,3.00
2018-12-13T20:39:50.340Z,3.00
2018-12-13T20:42:18.754Z,3.00
2018-12-13T20:44:47.150Z,3.00
2018-12-13T20:47:15.568Z,3.00
2018-12-13T20:49:43.988Z,3.10
2018-12-13T20:52:12.370Z,3.10
2018-12-13T20:54:40.775Z,3.00
2018-12-13T20:57:09.164Z,3.00
2018-12-13T20:59:37.580Z,3.00
2018-12-13T21:02:06.276Z,3.00
2018-12-13T21:04:34.691Z,3.00
2018-12-13T21:07:08.476Z,3.00
2018-12-13T21:09:36.873Z,3.00
2018-12-13T21:12:05.272Z,3.00
2018-12-13T21:14:33.758Z,3.10
2018-12-13T21:17:02.153Z,3.00
2018-12-13T21:19:30.606Z,3.10
2018-12-13T21:21:59.012Z,3.00
2018-12-13T21:24:27.432Z,3.00
2018-12-13T21:26:55.957Z,3.00
2018-12-13T21:29:24.393Z,3.00
2018-12-13T21:31:52.781Z,3.00
2018-12-13T21:34:21.190Z,3.00
2018-12-13T21:36:49.587Z,3.00
2018-12-13T21:39:17.997Z,3.00
2018-12-13T21:41:46.502Z,3.00
2018-12-13T21:44:14.903Z,3.00
2018-12-13T21:46:43.395Z,3.00
2018-12-13T21:49:11.809Z,3.00
2018-12-13T21:51:40.567Z,3.00
2018-12-13T21:54:08.985Z,3.00
2018-12-13T21:56:37.427Z,2.90
2018-12-13T21:59:05.858Z,2.90
2018-12-13T22:01:34.259Z,2.90
2018-12-13T22:04:02.715Z,2.90
2018-12-13T22:06:31.096Z,2.90
2018-12-13T22:08:59.512Z,2.90
2018-12-13T22:11:27.934Z,2.90
2018-12-13T22:13:56.343Z,2.80
2018-12-13T22:16:24.745Z,2.80
2018-12-13T22:18:53.134Z,2.80
2018-12-13T22:21:21.576Z,2.80
2018-12-13T22:23:49.999Z,2.90
2018-12-13T22:26:18.482Z,2.90
2018-12-13T22:28:46.890Z,2.80
2018-12-13T22:31:15.309Z,2.80
2018-12-13T22:33:43.814Z,2.80
2018-12-13T22:36:12.234Z,2.80
2018-12-13T22:38:40.624Z,2.80
2018-12-13T22:41:09.092Z,2.80
2018-12-13T22:43:37.565Z,2.80
2018-12-13T22:46:06.124Z,2.80
2018-12-13T22:48:34.535Z,2.80
2018-12-13T22:51:02.927Z,2.80
2018-12-13T22:53:31.459Z,2.80
2018-12-13T22:55:59.937Z,2.90
2018-12-13T22:58:28.329Z,2.80
2018-12-13T23:00:56.813Z,2.80
2018-12-13T23:03:26.133Z,2.80
2018-12-13T23:05:54.524Z,2.80
2018-12-13T23:08:22.939Z,2.80
2018-12-13T23:10:51.432Z,2.80
2018-12-13T23:13:19.856Z,2.90
2018-12-13T23:15:49.126Z,2.90
2018-12-13T23:18:17.519Z,2.90
2018-12-13T23:20:45.940Z,2.90
2018-12-13T23:23:14.344Z,2.90
2018-12-13T23:25:42.741Z,2.90
2018-12-13T23:28:11.218Z,2.90
2018-12-13T23:30:39.624Z,2.90
2018-12-13T23:33:08.042Z,2.90
2018-12-13T23:35:36.541Z,2.90
2018-12-13T23:38:05.013Z,2.90
2018-12-13T23:40:33.425Z,2.80
2018-12-13T23:43:02.325Z,2.90
2018-12-13T23:45:30.837Z,2.80
2018-12-13T23:47:59.229Z,2.80
2018-12-13T23:50:27.624Z,2.80
2018-12-13T23:52:56.033Z,2.90
2018-12-13T23:55:24.431Z,2.90
2018-12-13T23:57:52.895Z,3.00
